Cascade, MT

10:40 PM MST on December 24, 2014 (GMT -0700)
Great Falls International | Change Station
CLOSE
Current Station
Airport
Location: Great Falls,
Elevation: 3658 ft
Nearby Weather Stations

Elev 3658 ft 47.47 °N, 111.38 °W | Updated 13 minutes ago

Snow
Snow
28 °F
Feels Like 15 °F
N
21
Wind Variable Wind from NE
Gusts 31 mph

Today
High -- | Low -- °F
--% Chance of Precip.
Yesterday
High -- | Low -- °F
Precip. -- in
8:11 AM 4:41 PM
Waxing Crescent, 13% visible
Pressure 29.60 in
Visibility 1.0 miles
Clouds Mostly Cloudy 500 ft
Overcast 1000 ft
Windchill 15 °F
Dew Point 27 °F
Humidity 93%
Rainfall 0.43 in
Snow Depth Not available.
UV 0 out of 12
Pollen .10 out of 12
Air Quality Not available.
Flu Activity Not available.
SPECI KGTF 250527Z 04018G27KT 1SM -SN BR BKN005 OVC010 M02/M03 A2960 RMK AO2 PK WND 03030/0512 TWR VIS 1 1/4 P0001

More Conditions Fewer Conditions

Pressure 29.60 in
Visibility 1.0 miles
Clouds Mostly Cloudy 500 ft
Overcast 1000 ft
Windchill 15 °F
Dew Point 27 °F
Humidity 93%
Rainfall 0.43 in
Snow Depth Not available.
UV 0 out of 12
Pollen .10 out of 12
Air Quality Not available.
Flu Activity Not available.
SPECI KGTF 250527Z 04018G27KT 1SM -SN BR BKN005 OVC010 M02/M03 A2960 RMK AO2 PK WND 03030/0512 TWR VIS 1 1/4 P0001

More Conditions Fewer Conditions

10-Day Weather Forecast

Almanac

Astronomy

Dec. 24, 2014 Rise Set
Actual Time
Civil Twilight
Nautical Twilight
Astronomical Twilight
Moon
Length of Visible Light
Length of Day
Tomorrow will be .
, % of the Moon is Illuminated

Today's Extremes

State Highs State Lows

Community

WunderPhotos

Upload Photos

1,780,244 photos uploaded!

WunderBlogs® & News

Nearby

Air Quality

  Air Quality AQ Index Pollutant
Not available.

Snow Depth

Station Depth Elevation

Earthquake Activity

City Distance Mag. Time & Date
Minimum magnitude displayed is 2.5.

Coastal Water Temperatures

Place Temperature

Nearby Weather Stations